• Join FlightAware (Why Join?)
  • Login
  • US Flag 
02:51PM EDT


 

Airport Tracker/Info


-or-


 

Live Flight TrackerFlight Track Log ✈ AWI3780 ✈ 05-May-2013 ✈ KBTV - KPHL

Flight Track Log - Related Links

Times and Time Zones

All times are in EDT time to prevent confusion due to time zone crossing. See the AWI3780 flight status page for this flight to view local times or setup timezone preferences in your user account.

Time Position Orientation Groundspeed Altitude Reporting Facility
EDT Latitude Longitude Course Direction KTS MPH feet Rate Location/Type
04:16PM 44.0823 -73.2938 196° South  Level FlightAware Approximate
04:17PM 43.9864 -73.3322 196° South  Level FlightAware Approximate
04:17PM 44.3308 -73.3164 194° South 284 327 8,500  Level Boston Center
04:18PM 43.8905 -73.3702 195° South  Level FlightAware Approximate
04:18PM 44.2511 -73.3819 211° Southwest 288 331 10,900  Level Boston Center
04:19PM 43.7941 -73.4058 195° South  Level FlightAware Approximate
04:19PM 44.1758 -73.4386 208° Southwest 308 354 12,900  Level Boston Center
04:20PM 43.6977 -73.4414 195° South  Level FlightAware Approximate
04:20PM 44.0939 -73.5039 210° Southwest 333 383 15,000  Level Boston Center
04:21PM 43.6013 -73.4768 195° South  Level FlightAware Approximate
04:21PM 44.0119 -73.5689 210° Southwest 338 389 16,800  Level Boston Center
04:22PM 43.5044 -73.5097 194° South  Level FlightAware Approximate
04:22PM 43.9258 -73.6392 210° Southwest 351 404 18,200  Level Boston Center
04:23PM 43.8167 -73.7175 207° Southwest 362 417 20,100 1,680 Climbing Boston Center
04:24PM 43.7242 -73.7844 208° Southwest 373 429 21,600 1,200 Climbing Boston Center
04:25PM 43.6422 -73.8489 210° Southwest 373 429 22,600 1,080 Climbing Boston Center
04:26PM 43.5453 -73.9239 209° Southwest 384 442 23,800 960 Climbing Boston Center
04:27PM 43.4464 -73.9986 209° Southwest 395 455 24,800 900 Climbing Boston Center
04:28PM 43.3178 -74.0953 209° Southwest 407 468 25,900 600 Climbing Boston Center
04:29PM 43.2144 -74.1808 211° Southwest 417 480 26,000  Climbing Boston Center
04:30PM 43.1089 -74.2658 210° Southwest 432 497 26,000  Level Boston Center
04:31PM 43.0119 -74.3397 209° Southwest 432 497 26,000  Level Boston Center
04:32PM 42.9128 -74.4133 209° Southwest 418 481 26,000  Level Boston Center
04:33PM 42.8156 -74.4864 209° Southwest 411 473 26,000  Level Boston Center
04:34PM 42.7203 -74.5569 209° Southwest 404 465 26,000  Level Boston Center
04:35PM 42.6211 -74.6297 208° Southwest 404 465 26,000  Level Boston Center
04:36PM 42.5217 -74.7050 209° Southwest 404 465 26,000  Level Boston Center
04:37PM 42.4242 -74.7775 209° Southwest 404 465 26,000  Level Boston Center
04:38PM 42.3247 -74.8494 208° Southwest 404 465 26,000 -720 Level Boston Center
04:40PM 42.1828 -74.9547 209° Southwest 414 476 24,200 -1,620 Descending New York Center
04:41PM 42.0756 -75.0428 211° Southwest 420 483 21,700 -2,520 Descending New York Center
04:42PM 41.9833 -75.1178 211° Southwest 409 471 19,300 -1,380 Descending New York Center
04:43PM 41.8972 -75.1903 212° Southwest 384 442 19,000 -900 Descending New York Center
04:44PM 41.8411 -75.2978 235° Southwest 350 403 17,600 -2,160 Descending New York Center
04:45PM 41.8169 -75.4436 258° West 350 403 14,700 -1,920 Descending New York Center
04:47PM 41.6846 -75.5113 196° South  Level FlightAware Approximate
04:47PM 41.6528 -75.5406 196° South 313 360 12,000  Level New York Center
04:48PM 41.5767 -75.5683 195° South 318 366 12,000  Level New York Center
04:49PM 41.4814 -75.6058 196° South 324 373 12,000  Level New York Center
04:50PM 41.4008 -75.6386 197° South 330 380 12,000  Level New York Center
04:51PM 41.3097 -75.6736 196° South 325 374 12,000  Level New York Center
04:52PM 41.2258 -75.6894 188° South 315 362 12,000  Level New York Center
04:53PM 41.1447 -75.6892 180° South 315 362 12,000  Level New York Center
04:54PM 41.0531 -75.6881 179° South 321 369 12,000 -60 Level New York Center
04:55PM 40.9656 -75.6872 180° South 321 369 11,900 -60 Descending New York Center
04:56PM 40.8764 -75.6753 174° South 326 375 11,900  Level New York Center
04:57PM 40.7847 -75.6247 157° South 326 375 11,900  Level New York Center
04:58PM 40.7033 -75.5781 157° South 326 375 11,900 -540 Level New York Center
04:59PM 40.6219 -75.5311 156° South 326 375 10,900 -1,020 Descending New York Center
05:00PM 40.5403 -75.4844 157° South 326 375 9,900 -540 Descending New York Center
05:01PM 40.4669 -75.4442 157° South 304 350 9,900  Level New York Center
05:02PM 40.3933 -75.4119 162° South 290 334 9,900 -720 Level New York Center
05:03PM 40.3242 -75.4181 184° South 275 316 8,600 -1,200 Descending New York Center
05:04PM 40.2575 -75.4192 181° South 258 297 7,500 -1,320 Descending New York Center
05:05PM 40.1842 -75.4250 183° South 248 285 6,000 -1,440 Descending New York Center
05:06PM 40.1258 -75.4292 183° South 235 270 4,700 -1,020 Descending New York Center
05:07PM 40.0619 -75.4114 168° South 229 264 4,000 -360 Descending New York Center
05:08PM 40.0144 -75.4000 170° South 213 245 4,000  Level New York Center
05:09PM 39.9544 -75.3825 167° South 207 238 4,000  Level New York Center
05:10PM 39.9031 -75.3656 166° South 198 228 4,000 60 Level New York Center
05:11PM 39.8667 -75.3500 162° South 200 230 4,100 -480 Climbing Philadelphia TRACON
05:13PM 39.7667 -75.3000 159° South 204 235 2,800 -540 Descending Philadelphia TRACON
05:15PM 39.7667 -75.1833 90° East 181 208 2,100 -420 Descending Philadelphia TRACON
05:16PM 39.8167 -75.2000 346° North 170 196 1,600 -720 Descending Philadelphia TRACON
05:17PM 39.8500 -75.2167 339° North 149 171 600 -1,020 Descending Philadelphia TRACON
05:19PM 39.8667 -75.2333 247° West  Level FlightAware Approximate
05:26PM 39.8722 -75.2409 247° West  Level Estimated